sensor_id;sensor_type;location;lat;lon;timestamp;P1;durP1;ratioP1;P2;durP2;ratioP2
68076;SDS011;54866;53.458;14.540;2023-01-28T00:45:43;3.40;;;1.70;;
68076;SDS011;54866;53.458;14.540;2023-01-28T00:48:12;3.80;;;2.40;;
68076;SDS011;54866;53.458;14.540;2023-01-28T00:50:42;4.10;;;2.50;;
68076;SDS011;54866;53.458;14.540;2023-01-28T00:53:12;3.90;;;2.40;;
68076;SDS011;54866;53.458;14.540;2023-01-28T00:55:42;4.20;;;2.20;;
68076;SDS011;54866;53.458;14.540;2023-01-28T00:58:11;5.90;;;2.70;;
68076;SDS011;54866;53.458;14.540;2023-01-28T01:00:41;3.60;;;2.30;;
68076;SDS011;54866;53.458;14.540;2023-01-28T01:03:10;3.70;;;2.10;;
68076;SDS011;54866;53.458;14.540;2023-01-28T01:05:39;4.30;;;2.10;;
68076;SDS011;54866;53.458;14.540;2023-01-28T01:08:09;4.60;;;2.10;;
68076;SDS011;54866;53.458;14.540;2023-01-28T01:10:38;7.20;;;2.20;;
68076;SDS011;54866;53.458;14.540;2023-01-28T01:13:08;5.70;;;2.40;;
68076;SDS011;54866;53.458;14.540;2023-01-28T01:15:37;3.90;;;2.10;;
68076;SDS011;54866;53.458;14.540;2023-01-28T01:18:07;3.80;;;1.50;;
68076;SDS011;54866;53.458;14.540;2023-01-28T01:20:36;4.00;;;2.40;;
68076;SDS011;54866;53.458;14.540;2023-01-28T01:23:10;4.40;;;2.40;;
68076;SDS011;54866;53.458;14.540;2023-01-28T01:25:40;3.50;;;2.10;;
68076;SDS011;54866;53.458;14.540;2023-01-28T01:28:09;4.00;;;1.80;;
68076;SDS011;54866;53.458;14.540;2023-01-28T01:30:39;4.40;;;1.80;;
68076;SDS011;54866;53.458;14.540;2023-01-28T01:33:08;3.80;;;2.10;;
68076;SDS011;54866;53.458;14.540;2023-01-28T01:35:37;3.40;;;2.00;;
68076;SDS011;54866;53.458;14.540;2023-01-28T01:38:07;3.70;;;2.00;;
68076;SDS011;54866;53.458;14.540;2023-01-28T01:40:36;4.00;;;1.70;;
68076;SDS011;54866;53.458;14.540;2023-01-28T01:43:12;3.70;;;1.70;;
68076;SDS011;54866;53.458;14.540;2023-01-28T01:45:44;6.40;;;2.20;;
68076;SDS011;54866;53.458;14.540;2023-01-28T01:48:17;3.30;;;1.60;;
68076;SDS011;54866;53.458;14.540;2023-01-28T01:53:22;4.00;;;1.90;;
68076;SDS011;54866;53.458;14.540;2023-01-28T01:55:55;3.70;;;1.60;;
68076;SDS011;54866;53.458;14.540;2023-01-28T01:58:28;5.00;;;1.20;;
68076;SDS011;54866;53.458;14.540;2023-01-28T02:01:02;2.90;;;1.40;;
68076;SDS011;54866;53.458;14.540;2023-01-28T02:03:37;3.80;;;1.60;;
68076;SDS011;54866;53.458;14.540;2023-01-28T02:06:13;2.60;;;1.50;;
68076;SDS011;54866;53.458;14.540;2023-01-28T02:08:42;2.70;;;1.40;;
68076;SDS011;54866;53.458;14.540;2023-01-28T02:11:13;4.20;;;1.50;;
68076;SDS011;54866;53.458;14.540;2023-01-28T02:13:45;4.20;;;1.80;;
68076;SDS011;54866;53.458;14.540;2023-01-28T02:16:17;2.40;;;1.10;;
68076;SDS011;54866;53.458;14.540;2023-01-28T02:18:47;2.40;;;1.40;;
68076;SDS011;54866;53.458;14.540;2023-01-28T02:24:26;3.40;;;1.60;;
68076;SDS011;54866;53.458;14.540;2023-01-28T02:27:16;3.90;;;1.70;;
68076;SDS011;54866;53.458;14.540;2023-01-28T02:29:51;3.00;;;1.60;;
68076;SDS011;54866;53.458;14.540;2023-01-28T02:32:26;4.70;;;2.50;;
68076;SDS011;54866;53.458;14.540;2023-01-28T02:35:00;10.50;;;3.60;;
68076;SDS011;54866;53.458;14.540;2023-01-28T02:37:36;5.40;;;2.40;;
68076;SDS011;54866;53.458;14.540;2023-01-28T02:40:11;3.20;;;1.70;;
68076;SDS011;54866;53.458;14.540;2023-01-28T02:42:45;5.50;;;2.20;;
68076;SDS011;54866;53.458;14.540;2023-01-28T02:45:19;5.80;;;2.30;;
68076;SDS011;54866;53.458;14.540;2023-01-28T02:47:50;4.80;;;2.30;;
68076;SDS011;54866;53.458;14.540;2023-01-28T02:50:27;6.20;;;2.00;;
68076;SDS011;54866;53.458;14.540;2023-01-28T02:53:09;5.50;;;2.00;;
68076;SDS011;54866;53.458;14.540;2023-01-28T02:56:06;4.50;;;1.60;;
68076;SDS011;54866;53.458;14.540;2023-01-28T02:58:45;3.80;;;1.60;;
68076;SDS011;54866;53.458;14.540;2023-01-28T03:01:23;4.30;;;1.40;;
68076;SDS011;54866;53.458;14.540;2023-01-28T03:03:58;2.70;;;1.40;;
68076;SDS011;54866;53.458;14.540;2023-01-28T03:06:31;2.50;;;1.40;;
68076;SDS011;54866;53.458;14.540;2023-01-28T03:09:05;3.80;;;1.40;;
68076;SDS011;54866;53.458;14.540;2023-01-28T03:11:51;4.30;;;2.00;;
68076;SDS011;54866;53.458;14.540;2023-01-28T03:14:40;7.10;;;3.00;;
68076;SDS011;54866;53.458;14.540;2023-01-28T03:17:31;10.70;;;3.50;;
68076;SDS011;54866;53.458;14.540;2023-01-28T03:20:22;7.10;;;2.90;;
68076;SDS011;54866;53.458;14.540;2023-01-28T03:23:13;7.90;;;3.20;;
68076;SDS011;54866;53.458;14.540;2023-01-28T03:26:06;5.80;;;2.30;;
68076;SDS011;54866;53.458;14.540;2023-01-28T03:28:56;5.30;;;2.50;;
68076;SDS011;54866;53.458;14.540;2023-01-28T03:31:52;9.00;;;2.70;;
68076;SDS011;54866;53.458;14.540;2023-01-28T03:34:40;6.60;;;2.60;;
68076;SDS011;54866;53.458;14.540;2023-01-28T03:37:28;5.30;;;2.00;;
68076;SDS011;54866;53.458;14.540;2023-01-28T03:40:02;5.20;;;2.50;;
68076;SDS011;54866;53.458;14.540;2023-01-28T03:42:33;2.50;;;1.30;;
68076;SDS011;54866;53.458;14.540;2023-01-28T03:45:03;4.80;;;1.50;;
68076;SDS011;54866;53.458;14.540;2023-01-28T03:47:34;4.50;;;1.60;;
68076;SDS011;54866;53.458;14.540;2023-01-28T03:50:06;4.00;;;1.80;;
68076;SDS011;54866;53.458;14.540;2023-01-28T03:52:37;4.40;;;1.70;;
68076;SDS011;54866;53.458;14.540;2023-01-28T03:55:06;4.40;;;1.50;;
68076;SDS011;54866;53.458;14.540;2023-01-28T03:57:39;4.90;;;2.40;;
68076;SDS011;54866;53.458;14.540;2023-01-28T04:00:11;5.30;;;1.70;;
68076;SDS011;54866;53.458;14.540;2023-01-28T04:02:42;4.30;;;2.00;;
68076;SDS011;54866;53.458;14.540;2023-01-28T04:05:12;3.10;;;1.00;;
68076;SDS011;54866;53.458;14.540;2023-01-28T04:07:45;4.20;;;1.60;;
68076;SDS011;54866;53.458;14.540;2023-01-28T04:10:17;2.20;;;0.90;;
68076;SDS011;54866;53.458;14.540;2023-01-28T04:12:47;3.40;;;1.40;;
68076;SDS011;54866;53.458;14.540;2023-01-28T04:15:19;1.70;;;0.90;;
68076;SDS011;54866;53.458;14.540;2023-01-28T04:17:49;2.30;;;0.90;;
68076;SDS011;54866;53.458;14.540;2023-01-28T04:20:18;3.40;;;1.10;;
68076;SDS011;54866;53.458;14.540;2023-01-28T04:22:48;3.90;;;1.00;;
68076;SDS011;54866;53.458;14.540;2023-01-28T04:25:17;1.90;;;1.00;;
68076;SDS011;54866;53.458;14.540;2023-01-28T04:27:46;2.80;;;0.90;;
68076;SDS011;54866;53.458;14.540;2023-01-28T04:30:16;3.20;;;1.20;;
68076;SDS011;54866;53.458;14.540;2023-01-28T04:32:46;5.20;;;1.40;;
68076;SDS011;54866;53.458;14.540;2023-01-28T04:35:16;3.70;;;1.20;;
68076;SDS011;54866;53.458;14.540;2023-01-28T04:37:45;3.20;;;1.30;;
68076;SDS011;54866;53.458;14.540;2023-01-28T04:40:15;3.50;;;1.30;;
68076;SDS011;54866;53.458;14.540;2023-01-28T04:42:51;4.10;;;1.20;;
68076;SDS011;54866;53.458;14.540;2023-01-28T04:45:21;4.50;;;1.60;;
68076;SDS011;54866;53.458;14.540;2023-01-28T04:47:50;5.50;;;2.20;;
68076;SDS011;54866;53.458;14.540;2023-01-28T04:50:20;4.10;;;1.90;;
68076;SDS011;54866;53.458;14.540;2023-01-28T04:52:49;5.70;;;2.10;;
68076;SDS011;54866;53.458;14.540;2023-01-28T04:55:18;5.40;;;2.20;;
68076;SDS011;54866;53.458;14.540;2023-01-28T04:57:48;5.80;;;2.90;;
68076;SDS011;54866;53.458;14.540;2023-01-28T05:00:18;6.30;;;2.40;;
68076;SDS011;54866;53.458;14.540;2023-01-28T05:02:47;6.70;;;2.90;;
68076;SDS011;54866;53.458;14.540;2023-01-28T05:05:17;5.60;;;2.50;;
68076;SDS011;54866;53.458;14.540;2023-01-28T05:07:50;7.80;;;3.90;;
68076;SDS011;54866;53.458;14.540;2023-01-28T05:10:20;7.50;;;3.50;;
68076;SDS011;54866;53.458;14.540;2023-01-28T05:12:50;9.70;;;3.90;;
68076;SDS011;54866;53.458;14.540;2023-01-28T05:15:19;6.50;;;2.70;;
68076;SDS011;54866;53.458;14.540;2023-01-28T05:17:49;8.40;;;3.40;;
68076;SDS011;54866;53.458;14.540;2023-01-28T05:20:20;7.90;;;2.90;;
68076;SDS011;54866;53.458;14.540;2023-01-28T05:22:50;8.70;;;3.00;;
68076;SDS011;54866;53.458;14.540;2023-01-28T05:25:20;6.70;;;2.50;;
68076;SDS011;54866;53.458;14.540;2023-01-28T05:27:50;8.80;;;2.60;;
68076;SDS011;54866;53.458;14.540;2023-01-28T05:30:20;4.40;;;2.40;;
68076;SDS011;54866;53.458;14.540;2023-01-28T05:32:53;6.50;;;2.20;;
68076;SDS011;54866;53.458;14.540;2023-01-28T05:35:23;6.20;;;2.10;;
68076;SDS011;54866;53.458;14.540;2023-01-28T05:37:52;6.60;;;2.90;;
68076;SDS011;54866;53.458;14.540;2023-01-28T05:40:21;4.90;;;2.00;;
68076;SDS011;54866;53.458;14.540;2023-01-28T05:42:51;5.10;;;2.10;;
68076;SDS011;54866;53.458;14.540;2023-01-28T05:45:20;8.80;;;2.60;;
68076;SDS011;54866;53.458;14.540;2023-01-28T05:47:49;5.10;;;2.50;;
68076;SDS011;54866;53.458;14.540;2023-01-28T05:50:19;4.90;;;2.30;;
68076;SDS011;54866;53.458;14.540;2023-01-28T05:52:48;5.40;;;2.40;;
68076;SDS011;54866;53.458;14.540;2023-01-28T05:55:18;5.80;;;2.30;;
68076;SDS011;54866;53.458;14.540;2023-01-28T05:57:48;4.80;;;1.80;;
68076;SDS011;54866;53.458;14.540;2023-01-28T06:00:18;4.30;;;2.20;;
68076;SDS011;54866;53.458;14.540;2023-01-28T06:02:49;5.80;;;1.90;;
68076;SDS011;54866;53.458;14.540;2023-01-28T06:05:19;6.00;;;2.30;;
68076;SDS011;54866;53.458;14.540;2023-01-28T06:07:48;5.70;;;2.20;;
68076;SDS011;54866;53.458;14.540;2023-01-28T06:10:18;6.10;;;1.90;;
68076;SDS011;54866;53.458;14.540;2023-01-28T06:12:47;5.90;;;1.90;;
68076;SDS011;54866;53.458;14.540;2023-01-28T06:15:17;5.20;;;2.00;;
68076;SDS011;54866;53.458;14.540;2023-01-28T06:17:46;5.40;;;1.60;;
68076;SDS011;54866;53.458;14.540;2023-01-28T06:20:15;3.90;;;2.00;;
68076;SDS011;54866;53.458;14.540;2023-01-28T06:22:45;5.30;;;1.90;;
68076;SDS011;54866;53.458;14.540;2023-01-28T06:25:16;5.40;;;2.00;;
68076;SDS011;54866;53.458;14.540;2023-01-28T06:27:46;5.20;;;2.70;;
68076;SDS011;54866;53.458;14.540;2023-01-28T06:30:15;5.80;;;2.00;;
68076;SDS011;54866;53.458;14.540;2023-01-28T06:32:45;8.50;;;2.70;;
68076;SDS011;54866;53.458;14.540;2023-01-28T06:35:20;6.80;;;2.60;;
68076;SDS011;54866;53.458;14.540;2023-01-28T06:37:49;5.70;;;3.00;;
68076;SDS011;54866;53.458;14.540;2023-01-28T06:40:19;6.10;;;3.00;;
68076;SDS011;54866;53.458;14.540;2023-01-28T06:42:50;6.70;;;3.10;;
68076;SDS011;54866;53.458;14.540;2023-01-28T06:45:19;7.90;;;3.10;;
68076;SDS011;54866;53.458;14.540;2023-01-28T06:47:48;6.70;;;4.10;;
68076;SDS011;54866;53.458;14.540;2023-01-28T06:50:18;8.30;;;2.90;;
68076;SDS011;54866;53.458;14.540;2023-01-28T06:52:47;6.80;;;3.20;;
68076;SDS011;54866;53.458;14.540;2023-01-28T06:55:17;7.40;;;2.90;;
68076;SDS011;54866;53.458;14.540;2023-01-28T06:57:46;7.60;;;3.00;;
68076;SDS011;54866;53.458;14.540;2023-01-28T07:00:16;7.10;;;3.00;;
68076;SDS011;54866;53.458;14.540;2023-01-28T07:02:46;6.40;;;2.60;;
68076;SDS011;54866;53.458;14.540;2023-01-28T07:05:16;6.80;;;2.70;;
68076;SDS011;54866;53.458;14.540;2023-01-28T07:07:45;7.10;;;2.60;;
68076;SDS011;54866;53.458;14.540;2023-01-28T07:10:15;7.00;;;2.70;;
68076;SDS011;54866;53.458;14.540;2023-01-28T07:12:45;8.80;;;4.60;;
68076;SDS011;54866;53.458;14.540;2023-01-28T07:15:14;7.70;;;3.50;;
68076;SDS011;54866;53.458;14.540;2023-01-28T07:17:43;11.30;;;5.40;;
68076;SDS011;54866;53.458;14.540;2023-01-28T07:20:13;16.20;;;7.80;;
68076;SDS011;54866;53.458;14.540;2023-01-28T07:22:43;19.40;;;8.40;;
68076;SDS011;54866;53.458;14.540;2023-01-28T07:25:13;21.50;;;8.90;;
68076;SDS011;54866;53.458;14.540;2023-01-28T07:27:47;13.40;;;6.50;;
68076;SDS011;54866;53.458;14.540;2023-01-28T07:30:18;13.20;;;5.90;;
68076;SDS011;54866;53.458;14.540;2023-01-28T07:32:52;12.90;;;6.70;;
68076;SDS011;54866;53.458;14.540;2023-01-28T07:35:22;13.80;;;6.90;;
68076;SDS011;54866;53.458;14.540;2023-01-28T07:37:53;12.00;;;5.60;;
68076;SDS011;54866;53.458;14.540;2023-01-28T07:40:23;11.80;;;4.80;;
68076;SDS011;54866;53.458;14.540;2023-01-28T07:42:54;9.10;;;5.50;;
68076;SDS011;54866;53.458;14.540;2023-01-28T07:45:23;21.70;;;10.90;;
68076;SDS011;54866;53.458;14.540;2023-01-28T07:47:56;12.40;;;6.80;;
68076;SDS011;54866;53.458;14.540;2023-01-28T07:50:27;12.90;;;7.90;;
68076;SDS011;54866;53.458;14.540;2023-01-28T07:52:58;9.30;;;4.70;;
68076;SDS011;54866;53.458;14.540;2023-01-28T07:55:29;9.10;;;4.20;;
68076;SDS011;54866;53.458;14.540;2023-01-28T07:58:01;11.00;;;4.30;;
68076;SDS011;54866;53.458;14.540;2023-01-28T08:00:33;8.30;;;4.50;;
68076;SDS011;54866;53.458;14.540;2023-01-28T08:03:04;9.10;;;4.50;;
68076;SDS011;54866;53.458;14.540;2023-01-28T08:05:38;9.40;;;3.90;;
68076;SDS011;54866;53.458;14.540;2023-01-28T08:08:10;7.60;;;3.00;;
68076;SDS011;54866;53.458;14.540;2023-01-28T08:10:40;6.30;;;2.70;;
68076;SDS011;54866;53.458;14.540;2023-01-28T08:13:10;7.00;;;3.20;;
68076;SDS011;54866;53.458;14.540;2023-01-28T08:15:40;5.20;;;2.90;;
68076;SDS011;54866;53.458;14.540;2023-01-28T08:18:11;5.70;;;2.70;;
68076;SDS011;54866;53.458;14.540;2023-01-28T08:20:42;9.50;;;4.70;;
68076;SDS011;54866;53.458;14.540;2023-01-28T08:23:14;11.00;;;4.90;;
68076;SDS011;54866;53.458;14.540;2023-01-28T08:25:44;9.00;;;4.20;;
68076;SDS011;54866;53.458;14.540;2023-01-28T08:28:15;12.50;;;5.40;;
68076;SDS011;54866;53.458;14.540;2023-01-28T08:30:45;7.50;;;4.50;;
68076;SDS011;54866;53.458;14.540;2023-01-28T08:33:15;9.80;;;5.40;;
68076;SDS011;54866;53.458;14.540;2023-01-28T08:35:44;8.50;;;4.80;;
68076;SDS011;54866;53.458;14.540;2023-01-28T08:38:14;12.90;;;5.80;;
68076;SDS011;54866;53.458;14.540;2023-01-28T08:40:45;9.60;;;5.10;;
68076;SDS011;54866;53.458;14.540;2023-01-28T08:43:15;7.40;;;4.60;;
68076;SDS011;54866;53.458;14.540;2023-01-28T08:45:45;10.60;;;5.30;;
68076;SDS011;54866;53.458;14.540;2023-01-28T08:48:15;6.70;;;4.80;;
68076;SDS011;54866;53.458;14.540;2023-01-28T08:50:45;7.80;;;4.50;;
68076;SDS011;54866;53.458;14.540;2023-01-28T08:53:16;8.80;;;4.20;;
68076;SDS011;54866;53.458;14.540;2023-01-28T08:55:47;9.30;;;4.60;;
68076;SDS011;54866;53.458;14.540;2023-01-28T08:58:17;8.80;;;4.80;;
68076;SDS011;54866;53.458;14.540;2023-01-28T09:00:47;9.00;;;5.20;;
68076;SDS011;54866;53.458;14.540;2023-01-28T09:03:17;6.20;;;3.80;;
68076;SDS011;54866;53.458;14.540;2023-01-28T09:05:46;7.40;;;4.50;;
68076;SDS011;54866;53.458;14.540;2023-01-28T09:08:16;7.90;;;4.40;;
68076;SDS011;54866;53.458;14.540;2023-01-28T09:10:45;5.70;;;4.00;;
68076;SDS011;54866;53.458;14.540;2023-01-28T09:13:14;10.40;;;4.30;;
68076;SDS011;54866;53.458;14.540;2023-01-28T09:15:44;6.40;;;3.70;;
68076;SDS011;54866;53.458;14.540;2023-01-28T09:18:13;8.40;;;4.80;;
68076;SDS011;54866;53.458;14.540;2023-01-28T09:20:43;7.30;;;4.00;;
68076;SDS011;54866;53.458;14.540;2023-01-28T09:23:12;7.60;;;3.40;;
68076;SDS011;54866;53.458;14.540;2023-01-28T09:25:42;7.00;;;3.90;;
68076;SDS011;54866;53.458;14.540;2023-01-28T09:28:11;5.90;;;2.90;;
68076;SDS011;54866;53.458;14.540;2023-01-28T09:30:41;7.00;;;2.80;;
68076;SDS011;54866;53.458;14.540;2023-01-28T09:33:10;4.30;;;2.60;;
68076;SDS011;54866;53.458;14.540;2023-01-28T09:35:39;4.60;;;2.20;;
68076;SDS011;54866;53.458;14.540;2023-01-28T09:38:09;3.80;;;2.10;;
68076;SDS011;54866;53.458;14.540;2023-01-28T09:40:39;4.40;;;2.20;;
68076;SDS011;54866;53.458;14.540;2023-01-28T09:43:17;2.80;;;1.70;;
68076;SDS011;54866;53.458;14.540;2023-01-28T09:45:57;3.30;;;1.80;;
68076;SDS011;54866;53.458;14.540;2023-01-28T09:48:30;3.70;;;2.30;;
68076;SDS011;54866;53.458;14.540;2023-01-28T09:51:05;3.90;;;1.50;;
68076;SDS011;54866;53.458;14.540;2023-01-28T09:53:38;4.50;;;1.60;;
68076;SDS011;54866;53.458;14.540;2023-01-28T09:56:13;6.00;;;2.30;;
68076;SDS011;54866;53.458;14.540;2023-01-28T09:58:50;8.10;;;3.70;;
68076;SDS011;54866;53.458;14.540;2023-01-28T10:01:25;7.40;;;3.30;;
68076;SDS011;54866;53.458;14.540;2023-01-28T10:04:08;5.50;;;3.00;;
68076;SDS011;54866;53.458;14.540;2023-01-28T10:06:50;7.60;;;2.90;;
68076;SDS011;54866;53.458;14.540;2023-01-28T10:09:38;6.40;;;1.80;;
68076;SDS011;54866;53.458;14.540;2023-01-28T10:12:18;4.30;;;1.50;;
68076;SDS011;54866;53.458;14.540;2023-01-28T10:15:07;4.20;;;1.80;;
68076;SDS011;54866;53.458;14.540;2023-01-28T10:17:46;2.80;;;1.30;;
68076;SDS011;54866;53.458;14.540;2023-01-28T10:20:19;3.50;;;1.30;;
68076;SDS011;54866;53.458;14.540;2023-01-28T10:22:54;4.20;;;1.90;;
68076;SDS011;54866;53.458;14.540;2023-01-28T10:25:30;3.50;;;1.50;;
68076;SDS011;54866;53.458;14.540;2023-01-28T10:28:01;4.30;;;1.60;;
68076;SDS011;54866;53.458;14.540;2023-01-28T10:30:37;10.30;;;5.60;;
68076;SDS011;54866;53.458;14.540;2023-01-28T10:33:12;4.60;;;1.90;;
68076;SDS011;54866;53.458;14.540;2023-01-28T10:35:47;3.60;;;1.50;;
68076;SDS011;54866;53.458;14.540;2023-01-28T10:38:19;4.90;;;1.40;;
68076;SDS011;54866;53.458;14.540;2023-01-28T10:40:50;4.80;;;1.70;;
68076;SDS011;54866;53.458;14.540;2023-01-28T10:43:24;3.10;;;1.50;;
68076;SDS011;54866;53.458;14.540;2023-01-28T10:45:58;3.20;;;2.00;;
68076;SDS011;54866;53.458;14.540;2023-01-28T10:48:32;6.10;;;2.10;;
68076;SDS011;54866;53.458;14.540;2023-01-28T10:51:05;3.90;;;2.60;;
68076;SDS011;54866;53.458;14.540;2023-01-28T10:53:35;3.10;;;1.90;;
68076;SDS011;54866;53.458;14.540;2023-01-28T10:56:06;6.40;;;3.40;;
68076;SDS011;54866;53.458;14.540;2023-01-28T10:58:47;4.60;;;2.50;;
68076;SDS011;54866;53.458;14.540;2023-01-28T11:01:25;4.20;;;2.10;;
68076;SDS011;54866;53.458;14.540;2023-01-28T11:04:13;4.50;;;2.50;;
68076;SDS011;54866;53.458;14.540;2023-01-28T11:06:54;5.10;;;2.10;;
68076;SDS011;54866;53.458;14.540;2023-01-28T11:09:26;2.80;;;1.70;;
68076;SDS011;54866;53.458;14.540;2023-01-28T11:11:57;3.30;;;1.60;;
68076;SDS011;54866;53.458;14.540;2023-01-28T11:14:37;2.60;;;1.50;;
68076;SDS011;54866;53.458;14.540;2023-01-28T11:17:15;2.60;;;1.10;;
68076;SDS011;54866;53.458;14.540;2023-01-28T11:19:48;2.10;;;0.90;;
68076;SDS011;54866;53.458;14.540;2023-01-28T11:22:20;4.90;;;1.00;;
68076;SDS011;54866;53.458;14.540;2023-01-28T11:24:57;1.80;;;0.80;;
68076;SDS011;54866;53.458;14.540;2023-01-28T11:27:29;2.10;;;1.40;;
68076;SDS011;54866;53.458;14.540;2023-01-28T11:30:00;1.90;;;0.80;;
68076;SDS011;54866;53.458;14.540;2023-01-28T11:32:30;1.60;;;0.70;;
68076;SDS011;54866;53.458;14.540;2023-01-28T11:35:00;2.20;;;1.00;;
68076;SDS011;54866;53.458;14.540;2023-01-28T11:37:31;2.40;;;0.80;;
68076;SDS011;54866;53.458;14.540;2023-01-28T11:40:12;4.10;;;1.20;;
68076;SDS011;54866;53.458;14.540;2023-01-28T11:42:46;2.20;;;0.80;;
68076;SDS011;54866;53.458;14.540;2023-01-28T11:45:17;3.10;;;1.00;;
68076;SDS011;54866;53.458;14.540;2023-01-28T11:47:55;2.20;;;0.90;;
68076;SDS011;54866;53.458;14.540;2023-01-28T11:50:32;4.90;;;1.10;;
68076;SDS011;54866;53.458;14.540;2023-01-28T11:53:13;2.10;;;0.70;;
68076;SDS011;54866;53.458;14.540;2023-01-28T11:55:53;2.60;;;0.70;;
68076;SDS011;54866;53.458;14.540;2023-01-28T11:58:33;2.10;;;0.90;;
68076;SDS011;54866;53.458;14.540;2023-01-28T12:01:17;2.50;;;0.70;;
68076;SDS011;54866;53.458;14.540;2023-01-28T12:06:51;3.00;;;1.20;;
68076;SDS011;54866;53.458;14.540;2023-01-28T12:09:37;2.20;;;0.60;;
68076;SDS011;54866;53.458;14.540;2023-01-28T12:12:16;1.90;;;0.90;;
68076;SDS011;54866;53.458;14.540;2023-01-28T12:15:05;1.80;;;0.70;;
68076;SDS011;54866;53.458;14.540;2023-01-28T12:17:51;2.60;;;1.00;;
68076;SDS011;54866;53.458;14.540;2023-01-28T12:20:35;3.90;;;1.80;;
68076;SDS011;54866;53.458;14.540;2023-01-28T12:23:13;1.20;;;0.70;;
68076;SDS011;54866;53.458;14.540;2023-01-28T12:25:55;1.70;;;0.70;;
68076;SDS011;54866;53.458;14.540;2023-01-28T12:28:46;2.40;;;0.80;;
68076;SDS011;54866;53.458;14.540;2023-01-28T12:31:29;2.50;;;0.80;;
68076;SDS011;54866;53.458;14.540;2023-01-28T12:34:18;2.60;;;0.90;;
68076;SDS011;54866;53.458;14.540;2023-01-28T12:36:59;2.30;;;1.00;;
68076;SDS011;54866;53.458;14.540;2023-01-28T12:39:38;1.70;;;0.90;;
68076;SDS011;54866;53.458;14.540;2023-01-28T12:42:18;1.90;;;0.90;;
68076;SDS011;54866;53.458;14.540;2023-01-28T12:44:55;2.10;;;0.70;;
68076;SDS011;54866;53.458;14.540;2023-01-28T12:47:33;1.70;;;0.70;;
68076;SDS011;54866;53.458;14.540;2023-01-28T12:50:10;1.30;;;0.60;;
68076;SDS011;54866;53.458;14.540;2023-01-28T12:52:43;2.40;;;1.00;;
68076;SDS011;54866;53.458;14.540;2023-01-28T12:55:16;2.10;;;0.60;;
68076;SDS011;54866;53.458;14.540;2023-01-28T12:57:49;2.00;;;0.90;;
68076;SDS011;54866;53.458;14.540;2023-01-28T13:00:20;1.30;;;0.60;;
68076;SDS011;54866;53.458;14.540;2023-01-28T13:02:56;2.00;;;0.80;;
68076;SDS011;54866;53.458;14.540;2023-01-28T13:05:30;1.90;;;1.00;;
68076;SDS011;54866;53.458;14.540;2023-01-28T13:08:05;2.70;;;1.20;;
68076;SDS011;54866;53.458;14.540;2023-01-28T13:10:43;1.60;;;0.70;;
68076;SDS011;54866;53.458;14.540;2023-01-28T13:13:16;2.20;;;0.60;;
68076;SDS011;54866;53.458;14.540;2023-01-28T13:15:49;1.80;;;0.80;;
68076;SDS011;54866;53.458;14.540;2023-01-28T13:18:30;2.40;;;0.80;;
68076;SDS011;54866;53.458;14.540;2023-01-28T13:21:02;1.80;;;0.80;;
68076;SDS011;54866;53.458;14.540;2023-01-28T13:23:39;1.80;;;0.50;;
68076;SDS011;54866;53.458;14.540;2023-01-28T13:26:27;1.00;;;0.40;;
68076;SDS011;54866;53.458;14.540;2023-01-28T13:29:16;2.70;;;0.70;;
68076;SDS011;54866;53.458;14.540;2023-01-28T13:31:48;2.00;;;1.00;;
68076;SDS011;54866;53.458;14.540;2023-01-28T13:34:29;1.40;;;0.60;;
68076;SDS011;54866;53.458;14.540;2023-01-28T13:37:03;2.10;;;0.90;;
68076;SDS011;54866;53.458;14.540;2023-01-28T13:39:47;2.80;;;1.10;;
68076;SDS011;54866;53.458;14.540;2023-01-28T13:42:22;1.80;;;1.20;;
68076;SDS011;54866;53.458;14.540;2023-01-28T13:44:53;2.20;;;0.80;;
68076;SDS011;54866;53.458;14.540;2023-01-28T13:47:34;2.10;;;0.80;;
68076;SDS011;54866;53.458;14.540;2023-01-28T13:50:10;3.30;;;1.30;;
68076;SDS011;54866;53.458;14.540;2023-01-28T13:52:43;1.70;;;0.80;;
68076;SDS011;54866;53.458;14.540;2023-01-28T13:55:18;4.50;;;1.80;;
68076;SDS011;54866;53.458;14.540;2023-01-28T13:58:01;3.20;;;0.90;;
68076;SDS011;54866;53.458;14.540;2023-01-28T14:01:11;3.60;;;1.60;;
68076;SDS011;54866;53.458;14.540;2023-01-28T14:04:08;3.10;;;1.40;;
68076;SDS011;54866;53.458;14.540;2023-01-28T14:07:10;2.00;;;1.00;;
68076;SDS011;54866;53.458;14.540;2023-01-28T14:09:58;4.00;;;1.10;;
68076;SDS011;54866;53.458;14.540;2023-01-28T14:13:26;2.40;;;1.20;;
68076;SDS011;54866;53.458;14.540;2023-01-28T14:16:29;2.50;;;0.90;;
68076;SDS011;54866;53.458;14.540;2023-01-28T14:19:04;2.50;;;1.10;;
68076;SDS011;54866;53.458;14.540;2023-01-28T14:21:39;2.50;;;1.30;;
68076;SDS011;54866;53.458;14.540;2023-01-28T14:24:13;2.00;;;0.90;;
68076;SDS011;54866;53.458;14.540;2023-01-28T14:26:48;1.70;;;0.80;;
68076;SDS011;54866;53.458;14.540;2023-01-28T14:29:30;1.80;;;0.60;;
68076;SDS011;54866;53.458;14.540;2023-01-28T14:32:13;3.40;;;1.50;;
68076;SDS011;54866;53.458;14.540;2023-01-28T14:34:44;2.90;;;1.20;;
68076;SDS011;54866;53.458;14.540;2023-01-28T14:37:15;1.90;;;0.90;;
68076;SDS011;54866;53.458;14.540;2023-01-28T14:39:48;1.70;;;0.70;;
68076;SDS011;54866;53.458;14.540;2023-01-28T14:42:23;3.30;;;0.90;;
68076;SDS011;54866;53.458;14.540;2023-01-28T14:45:00;1.80;;;0.60;;
68076;SDS011;54866;53.458;14.540;2023-01-28T14:47:48;3.70;;;1.30;;
68076;SDS011;54866;53.458;14.540;2023-01-28T14:50:45;2.50;;;1.20;;
68076;SDS011;54866;53.458;14.540;2023-01-28T14:53:32;4.20;;;2.20;;
68076;SDS011;54866;53.458;14.540;2023-01-28T14:56:15;3.20;;;1.20;;
68076;SDS011;54866;53.458;14.540;2023-01-28T14:58:56;3.80;;;1.60;;
68076;SDS011;54866;53.458;14.540;2023-01-28T15:01:30;2.60;;;1.30;;
68076;SDS011;54866;53.458;14.540;2023-01-28T15:03:59;2.80;;;1.30;;
68076;SDS011;54866;53.458;14.540;2023-01-28T15:06:33;4.80;;;2.00;;
68076;SDS011;54866;53.458;14.540;2023-01-28T15:09:06;3.90;;;1.80;;
68076;SDS011;54866;53.458;14.540;2023-01-28T15:11:40;3.40;;;1.90;;
68076;SDS011;54866;53.458;14.540;2023-01-28T15:14:13;4.20;;;2.20;;
68076;SDS011;54866;53.458;14.540;2023-01-28T15:16:48;4.80;;;2.00;;
68076;SDS011;54866;53.458;14.540;2023-01-28T15:19:18;6.70;;;2.40;;
68076;SDS011;54866;53.458;14.540;2023-01-28T15:21:55;5.90;;;2.90;;
68076;SDS011;54866;53.458;14.540;2023-01-28T15:24:26;5.60;;;2.90;;
68076;SDS011;54866;53.458;14.540;2023-01-28T15:26:55;6.70;;;3.40;;
68076;SDS011;54866;53.458;14.540;2023-01-28T15:29:25;6.50;;;3.10;;
68076;SDS011;54866;53.458;14.540;2023-01-28T15:32:00;7.30;;;3.10;;
68076;SDS011;54866;53.458;14.540;2023-01-28T15:34:31;6.20;;;3.30;;
68076;SDS011;54866;53.458;14.540;2023-01-28T15:37:00;6.70;;;3.60;;
68076;SDS011;54866;53.458;14.540;2023-01-28T15:39:30;8.50;;;4.30;;
68076;SDS011;54866;53.458;14.540;2023-01-28T15:42:01;8.60;;;4.50;;
68076;SDS011;54866;53.458;14.540;2023-01-28T15:44:33;9.10;;;5.00;;
68076;SDS011;54866;53.458;14.540;2023-01-28T15:47:12;8.10;;;4.20;;
68076;SDS011;54866;53.458;14.540;2023-01-28T15:49:44;9.20;;;3.80;;
68076;SDS011;54866;53.458;14.540;2023-01-28T15:52:15;9.90;;;4.70;;
68076;SDS011;54866;53.458;14.540;2023-01-28T15:54:46;7.40;;;3.50;;
68076;SDS011;54866;53.458;14.540;2023-01-28T15:57:18;6.50;;;3.60;;
68076;SDS011;54866;53.458;14.540;2023-01-28T15:59:52;6.20;;;3.80;;
68076;SDS011;54866;53.458;14.540;2023-01-28T16:02:43;6.30;;;3.60;;
68076;SDS011;54866;53.458;14.540;2023-01-28T16:05:24;8.70;;;4.00;;
68076;SDS011;54866;53.458;14.540;2023-01-28T16:07:55;6.40;;;3.60;;